Time;durP1;ratioP1;P1;durP2;ratioP2;P2;SDS_P1;SDS_P2;PMS_P1;PMS_P2;Temp;Humidity;BMP_temperature;BMP_pressure;BME280_temperature;BME280_humidity;BME280_pressure;Samples;Min_cycle;Max_cycle;Signal;HPM_P1;HPM_P2
2023/06/09 00:00:11;;;;;;;939.43;866.97;;;14.40;99.90;;;;;;5983444;24;20443;-67
2023/06/09 00:02:39;;;;;;;928.53;860.50;;;14.40;99.90;;;;;;5982734;24;20420;-67
2023/06/09 00:05:07;;;;;;;929.70;863.50;;;14.20;99.90;;;;;;5983260;24;20427;-67
2023/06/09 00:07:36;;;;;;;927.67;860.43;;;14.20;99.90;;;;;;5983243;24;20419;-67
2023/06/09 00:10:03;;;;;;;924.53;856.93;;;14.10;99.90;;;;;;5983424;24;20439;-67
2023/06/09 00:12:30;;;;;;;925.60;854.97;;;14.10;99.90;;;;;;5982623;24;20420;-68
2023/06/09 00:14:57;;;;;;;924.83;853.33;;;14.00;99.90;;;;;;5983603;24;20429;-67
2023/06/09 00:17:25;;;;;;;929.33;852.83;;;13.90;99.90;;;;;;5983270;24;20419;-67
2023/06/09 00:19:54;;;;;;;927.90;847.10;;;13.90;99.90;;;;;;5983141;24;20439;-67
2023/06/09 00:22:22;;;;;;;922.17;839.03;;;13.90;99.90;;;;;;5982680;24;20502;-67
2023/06/09 00:24:50;;;;;;;912.23;832.07;;;13.90;99.90;;;;;;5983223;24;20480;-67
2023/06/09 00:27:17;;;;;;;910.83;831.57;;;13.90;99.90;;;;;;5983102;24;20423;-67
2023/06/09 00:29:43;;;;;;;920.73;836.93;;;13.80;99.90;;;;;;5983280;24;20440;-68
2023/06/09 00:32:11;;;;;;;918.13;833.20;;;13.80;99.90;;;;;;5983137;24;20420;-68
2023/06/09 00:34:38;;;;;;;912.17;826.73;;;13.70;99.90;;;;;;5983116;24;20491;-67
2023/06/09 00:37:05;;;;;;;906.27;821.73;;;13.70;99.90;;;;;;5983037;24;20420;-67
2023/06/09 00:39:33;;;;;;;908.10;822.40;;;13.60;99.90;;;;;;5983108;24;20763;-67
2023/06/09 00:42:00;;;;;;;904.97;820.07;;;13.70;99.90;;;;;;5982898;24;20427;-67
2023/06/09 00:44:27;;;;;;;899.30;814.30;;;13.60;99.90;;;;;;5982290;24;20423;-67
2023/06/09 00:46:54;;;;;;;913.90;828.83;;;13.60;99.90;;;;;;5982810;24;20429;-67
2023/06/09 00:49:21;;;;;;;907.87;822.60;;;13.60;99.90;;;;;;5982811;24;20426;-67
2023/06/09 00:51:48;;;;;;;909.07;825.30;;;13.60;99.90;;;;;;5983048;24;20427;-67
2023/06/09 00:54:18;;;;;;;910.20;825.17;;;13.50;99.90;;;;;;5982305;24;20430;-67
2023/06/09 00:56:46;;;;;;;903.50;819.30;;;13.50;99.90;;;;;;5982696;24;20420;-67
2023/06/09 00:59:16;;;;;;;910.27;825.17;;;13.50;99.90;;;;;;5982342;24;20910;-68
2023/06/09 01:01:44;;;;;;;909.97;823.07;;;13.40;99.90;;;;;;5983070;24;20753;-67
2023/06/09 01:04:12;;;;;;;910.33;823.50;;;13.50;99.90;;;;;;5982202;24;20953;-68
2023/06/09 01:06:47;;;;;;;910.13;822.80;;;13.40;99.90;;;;;;5982971;24;20745;-67
2023/06/09 01:09:21;;;;;;;935.83;846.20;;;13.40;99.90;;;;;;5982870;24;20403;-68
2023/06/09 01:12:00;;;;;;;936.80;844.83;;;13.40;99.90;;;;;;5982859;24;20410;-67
2023/06/09 01:14:32;;;;;;;932.30;839.40;;;13.30;99.90;;;;;;5982014;24;20422;-67
2023/06/09 01:17:07;;;;;;;933.80;840.10;;;13.30;99.90;;;;;;5982815;24;20404;-67
2023/06/09 01:19:40;;;;;;;921.53;826.43;;;13.30;99.90;;;;;;5982779;24;20732;-67
2023/06/09 01:22:12;;;;;;;951.60;855.30;;;13.30;99.90;;;;;;5982413;24;20403;-67
2023/06/09 01:24:48;;;;;;;945.10;850.23;;;13.40;99.90;;;;;;5982725;24;20410;-67
2023/06/09 01:27:18;;;;;;;946.37;853.03;;;13.40;99.90;;;;;;5982252;24;20601;-67
2023/06/09 01:29:47;;;;;;;936.37;844.60;;;13.30;99.90;;;;;;5982804;24;20464;-67
2023/06/09 01:32:16;;;;;;;938.30;845.40;;;13.30;99.90;;;;;;5982198;24;20426;-67
2023/06/09 01:34:43;;;;;;;947.70;852.80;;;13.20;99.90;;;;;;5982176;24;20423;-67
2023/06/09 01:37:11;;;;;;;939.93;844.73;;;13.30;99.90;;;;;;5982479;24;20432;-67
2023/06/09 01:39:38;;;;;;;951.40;856.00;;;13.30;99.90;;;;;;5980781;24;20938;-67
2023/06/09 01:42:06;;;;;;;952.30;857.47;;;13.30;99.90;;;;;;5982393;24;20427;-67
2023/06/09 01:44:35;;;;;;;951.27;857.47;;;13.30;99.90;;;;;;5981851;24;20503;-67
2023/06/09 01:47:02;;;;;;;940.50;847.50;;;13.30;99.90;;;;;;5982556;24;20492;-67
2023/06/09 01:49:34;;;;;;;932.27;840.33;;;13.20;99.90;;;;;;5982197;24;20920;-67
2023/06/09 01:52:05;;;;;;;939.40;848.33;;;13.20;99.90;;;;;;5982685;24;20714;-68
2023/06/09 01:54:38;;;;;;;932.43;844.70;;;13.20;99.90;;;;;;5982113;24;20799;-67
2023/06/09 01:57:10;;;;;;;925.40;838.67;;;13.10;99.90;;;;;;5981977;24;20407;-67
2023/06/09 01:59:45;;;;;;;918.40;833.47;;;13.00;99.90;;;;;;5982190;24;20404;-67
2023/06/09 02:02:13;;;;;;;915.50;832.80;;;13.00;99.90;;;;;;5982534;24;20410;-68
2023/06/09 02:04:43;;;;;;;925.30;838.23;;;12.80;99.90;;;;;;5982085;24;20420;-67
2023/06/09 02:07:16;;;;;;;928.63;841.00;;;12.80;99.90;;;;;;5982416;24;20495;-67
2023/06/09 02:09:43;;;;;;;938.80;850.10;;;12.70;99.90;;;;;;5982575;24;20808;-67
2023/06/09 02:12:11;;;;;;;942.10;851.37;;;12.70;99.90;;;;;;5982256;24;20475;-67
2023/06/09 02:14:40;;;;;;;944.57;853.27;;;12.70;99.90;;;;;;5982401;24;20423;-67
2023/06/09 02:17:08;;;;;;;935.70;844.27;;;12.70;99.90;;;;;;5982207;24;20419;-67
2023/06/09 02:19:37;;;;;;;930.53;839.13;;;12.80;99.90;;;;;;5981904;24;20420;-67
2023/06/09 02:22:05;;;;;;;944.20;851.27;;;12.80;99.90;;;;;;5982094;24;20746;-67
2023/06/09 02:24:33;;;;;;;938.37;845.60;;;12.80;99.90;;;;;;5981549;24;20476;-67
2023/06/09 02:27:00;;;;;;;919.63;828.27;;;12.90;99.90;;;;;;5982010;24;20479;-67
2023/06/09 02:29:28;;;;;;;925.00;835.20;;;12.80;99.90;;;;;;5982103;24;20455;-67
2023/06/09 02:31:56;;;;;;;931.63;841.60;;;12.80;99.90;;;;;;5982349;24;20441;-67
2023/06/09 02:34:23;;;;;;;941.67;849.77;;;12.70;99.90;;;;;;5981846;24;20427;-67
2023/06/09 02:36:52;;;;;;;933.17;840.57;;;12.60;99.90;;;;;;5982402;24;20422;-67
2023/06/09 02:39:19;;;;;;;931.27;838.77;;;12.60;99.90;;;;;;5982038;24;20491;-67
2023/06/09 02:41:46;;;;;;;943.80;850.00;;;12.50;99.90;;;;;;5981654;24;20960;-67
2023/06/09 02:44:13;;;;;;;933.60;839.27;;;12.50;99.90;;;;;;5981629;24;20423;-67
2023/06/09 02:46:42;;;;;;;950.27;855.00;;;12.40;99.90;;;;;;5982228;24;20419;-67
2023/06/09 02:49:10;;;;;;;937.63;842.77;;;12.30;99.90;;;;;;5981712;24;20429;-67
2023/06/09 02:51:37;;;;;;;947.00;851.17;;;12.30;99.90;;;;;;5981887;24;20930;-67
2023/06/09 02:54:04;;;;;;;935.20;838.53;;;12.40;99.90;;;;;;5981752;24;20419;-67
2023/06/09 02:56:31;;;;;;;947.00;850.23;;;12.40;99.90;;;;;;5981835;24;20422;-67
2023/06/09 02:58:58;;;;;;;943.50;846.93;;;12.40;99.90;;;;;;5982383;24;20445;-67
2023/06/09 03:01:26;;;;;;;930.43;833.83;;;12.50;99.90;;;;;;5982055;24;20529;-67
2023/06/09 03:03:53;;;;;;;934.87;838.43;;;12.50;99.90;;;;;;5981866;24;20475;-67
2023/06/09 03:06:21;;;;;;;936.10;839.27;;;12.50;99.90;;;;;;5982097;24;20434;-67
2023/06/09 03:08:48;;;;;;;936.53;839.77;;;12.40;99.90;;;;;;5982171;24;20427;-67
2023/06/09 03:11:15;;;;;;;931.47;835.00;;;12.50;99.90;;;;;;5983976;24;20417;-67
2023/06/09 03:13:41;;;;;;;940.97;842.40;;;12.50;99.90;;;;;;5983443;24;20423;-67
2023/06/09 03:16:08;;;;;;;944.00;845.80;;;12.50;99.90;;;;;;5983808;24;20419;-67
2023/06/09 03:18:35;;;;;;;933.63;836.77;;;12.50;99.90;;;;;;5983735;24;20427;-67
2023/06/09 03:21:04;;;;;;;933.10;836.87;;;12.50;99.90;;;;;;5983657;24;20442;-67
2023/06/09 03:23:32;;;;;;;948.13;850.73;;;12.40;99.90;;;;;;5983230;24;20422;-67
2023/06/09 03:25:59;;;;;;;938.97;843.10;;;12.40;99.90;;;;;;5983805;24;20480;-67
2023/06/09 03:28:26;;;;;;;944.23;847.83;;;12.40;99.90;;;;;;5983328;24;20485;-67
2023/06/09 03:30:55;;;;;;;931.57;836.87;;;12.40;99.90;;;;;;5983403;24;20418;-67
2023/06/09 03:33:24;;;;;;;914.63;821.97;;;12.40;99.90;;;;;;5983276;24;20485;-67
2023/06/09 03:35:51;;;;;;;918.90;826.77;;;12.40;99.90;;;;;;5983764;24;20423;-67
2023/06/09 03:38:17;;;;;;;916.57;823.93;;;12.30;99.90;;;;;;5983181;24;20915;-67
2023/06/09 03:40:46;;;;;;;926.10;832.93;;;12.40;99.90;;;;;;5983641;24;20749;-67
2023/06/09 03:43:12;;;;;;;919.00;824.10;;;12.30;99.90;;;;;;5982743;24;20431;-69
2023/06/09 03:45:40;;;;;;;906.77;812.30;;;12.20;99.90;;;;;;5983674;24;20442;-67
2023/06/09 03:48:07;;;;;;;908.20;812.60;;;12.20;99.90;;;;;;5983347;24;20430;-67
2023/06/09 03:50:34;;;;;;;897.93;802.97;;;12.30;99.90;;;;;;5983300;24;20426;-67
2023/06/09 03:53:01;;;;;;;900.87;805.77;;;12.40;99.90;;;;;;5983061;24;20427;-67
2023/06/09 03:55:31;;;;;;;898.43;803.97;;;12.40;99.90;;;;;;5983490;24;20427;-67
2023/06/09 03:57:59;;;;;;;911.90;817.40;;;12.40;99.90;;;;;;5983012;24;20426;-67
2023/06/09 04:00:26;;;;;;;911.43;817.37;;;12.40;99.90;;;;;;5983384;24;20472;-67
2023/06/09 04:02:53;;;;;;;910.43;816.30;;;12.40;99.90;;;;;;5982977;24;20418;-67
2023/06/09 04:05:21;;;;;;;908.77;815.30;;;12.50;99.90;;;;;;5983483;24;20418;-67
2023/06/09 04:07:48;;;;;;;891.10;799.60;;;12.60;99.90;;;;;;5983313;24;20419;-69
2023/06/09 04:10:15;;;;;;;890.33;797.70;;;12.60;99.90;;;;;;5983441;24;20425;-67
2023/06/09 04:12:42;;;;;;;897.87;805.53;;;12.60;99.90;;;;;;5983024;24;20424;-67
2023/06/09 04:15:10;;;;;;;898.87;804.90;;;12.70;99.90;;;;;;5983192;24;20415;-67
2023/06/09 04:17:37;;;;;;;895.97;800.70;;;12.80;99.90;;;;;;5983256;24;21009;-67
2023/06/09 04:20:07;;;;;;;896.50;800.90;;;13.00;99.90;;;;;;5982895;24;20774;-67
2023/06/09 04:22:34;;;;;;;907.97;813.70;;;13.20;99.90;;;;;;5982485;24;20452;-67
2023/06/09 04:25:02;;;;;;;913.80;819.80;;;13.20;99.90;;;;;;5982905;24;20419;-67
2023/06/09 04:27:30;;;;;;;910.40;817.90;;;13.20;99.90;;;;;;5982982;24;20419;-67
2023/06/09 04:29:57;;;;;;;885.10;794.90;;;13.20;99.90;;;;;;5982846;24;20459;-67
2023/06/09 04:32:26;;;;;;;887.40;796.00;;;13.30;99.90;;;;;;5982750;24;20415;-67
2023/06/09 04:34:52;;;;;;;878.37;786.33;;;13.40;99.90;;;;;;5983230;24;20471;-67
2023/06/09 04:37:20;;;;;;;887.10;795.80;;;13.60;99.90;;;;;;5983051;24;20743;-67
2023/06/09 04:39:47;;;;;;;888.17;796.77;;;13.60;99.90;;;;;;5983167;24;20423;-67
2023/06/09 04:42:19;;;;;;;903.33;811.00;;;13.70;99.90;;;;;;5982177;24;20443;-69
2023/06/09 04:44:47;;;;;;;891.53;798.53;;;13.80;99.90;;;;;;5983187;24;20404;-69
2023/06/09 04:47:17;;;;;;;906.37;812.27;;;13.80;99.90;;;;;;5982624;24;20908;-69
2023/06/09 04:49:46;;;;;;;906.77;812.77;;;13.90;99.90;;;;;;5983179;24;20797;-69
2023/06/09 04:52:17;;;;;;;919.73;822.97;;;14.00;99.90;;;;;;5983004;24;20422;-69
2023/06/09 04:54:44;;;;;;;912.50;815.83;;;14.10;99.90;;;;;;5982591;24;20411;-67
2023/06/09 04:57:11;;;;;;;912.33;817.20;;;14.20;99.90;;;;;;5982368;24;20427;-67
2023/06/09 04:59:39;;;;;;;916.17;820.73;;;14.30;99.90;;;;;;5982667;24;20474;-67
2023/06/09 05:02:06;;;;;;;912.97;818.47;;;14.40;99.90;;;;;;5982829;24;20749;-67
2023/06/09 05:04:33;;;;;;;908.13;814.77;;;14.50;99.90;;;;;;5982375;24;20776;-67
2023/06/09 05:07:01;;;;;;;911.07;818.57;;;14.60;99.90;;;;;;5982948;24;20420;-67
2023/06/09 05:09:28;;;;;;;905.23;813.00;;;14.60;99.90;;;;;;5982711;24;20420;-69
2023/06/09 05:11:55;;;;;;;904.80;814.53;;;14.70;99.90;;;;;;5982933;24;20734;-69
2023/06/09 05:14:22;;;;;;;892.00;802.73;;;14.80;99.90;;;;;;5982287;24;20442;-69
2023/06/09 05:16:49;;;;;;;889.40;800.70;;;14.90;99.90;;;;;;5982797;24;20420;-69
2023/06/09 05:19:16;;;;;;;842.07;766.90;;;15.30;99.90;;;;;;5982626;24;20427;-67
2023/06/09 05:21:45;;;;;;;733.90;685.30;;;15.80;99.90;;;;;;5982608;24;20439;-67
2023/06/09 05:24:13;;;;;;;267.43;255.83;;;16.40;99.90;;;;;;5982080;24;20927;-68
2023/06/09 05:26:40;;;;;;;48.70;45.73;;;16.90;99.90;;;;;;5982358;24;20426;-68
2023/06/09 05:29:07;;;;;;;28.03;25.63;;;17.50;99.90;;;;;;5982572;24;20423;-68
2023/06/09 05:31:34;;;;;;;20.03;18.03;;;18.00;99.90;;;;;;5982338;24;20562;-68
2023/06/09 05:34:01;;;;;;;18.87;15.83;;;18.50;99.90;;;;;;5982113;24;20751;-68
2023/06/09 05:36:28;;;;;;;16.03;14.20;;;19.00;99.90;;;;;;5982289;24;20426;-68
2023/06/09 05:38:55;;;;;;;18.87;14.77;;;19.40;99.90;;;;;;5982469;24;20535;-68
2023/06/09 05:41:23;;;;;;;16.47;14.70;;;19.60;99.90;;;;;;5981968;24;20566;-68
2023/06/09 05:43:50;;;;;;;17.73;13.57;;;19.60;99.90;;;;;;5981726;24;20866;-68
2023/06/09 05:46:17;;;;;;;15.17;13.53;;;19.80;99.90;;;;;;5982626;24;20441;-68
2023/06/09 05:48:43;;;;;;;17.57;12.63;;;19.80;99.90;;;;;;5982309;24;20473;-68
2023/06/09 05:51:10;;;;;;;14.93;13.43;;;20.20;99.90;;;;;;5982484;24;20415;-67
2023/06/09 05:53:38;;;;;;;18.43;13.27;;;20.40;99.90;;;;;;5981712;24;20451;-67
2023/06/09 05:56:06;;;;;;;13.40;11.87;;;20.40;99.90;;;;;;5982511;24;20811;-68
2023/06/09 05:58:34;;;;;;;13.73;12.10;;;20.70;99.90;;;;;;5982410;24;20538;-67
2023/06/09 06:01:03;;;;;;;15.23;11.70;;;20.90;99.90;;;;;;5982430;24;20423;-67
2023/06/09 06:03:31;;;;;;;15.43;12.00;;;21.10;99.90;;;;;;5982043;24;20422;-68
2023/06/09 06:05:58;;;;;;;12.50;11.13;;;21.30;99.90;;;;;;5982427;24;20420;-67
2023/06/09 06:08:28;;;;;;;13.47;10.77;;;21.50;99.90;;;;;;5981920;24;20415;-67
2023/06/09 06:10:54;;;;;;;15.37;10.13;;;21.80;99.90;;;;;;5982455;24;20426;-67
2023/06/09 06:13:21;;;;;;;12.00;9.60;;;22.00;99.90;;;;;;5982004;24;20419;-68
2023/06/09 06:15:49;;;;;;;13.70;9.43;;;22.00;99.90;;;;;;5982112;24;20419;-67
2023/06/09 06:18:16;;;;;;;10.83;8.70;;;22.70;99.90;;;;;;5981837;24;20419;-65
2023/06/09 06:20:43;;;;;;;14.73;10.77;;;23.00;99.90;;;;;;5982433;24;20446;-65
2023/06/09 06:23:11;;;;;;;10.70;9.13;;;23.30;99.90;;;;;;5980340;24;20418;-65
2023/06/09 06:25:41;;;;;;;13.17;8.93;;;23.70;99.90;;;;;;5981956;24;20427;-65
2023/06/09 06:28:07;;;;;;;12.57;10.03;;;23.70;99.30;;;;;;5982264;24;20766;-65
2023/06/09 06:30:34;;;;;;;10.40;8.40;;;23.80;99.90;;;;;;5981802;24;20419;-65
2023/06/09 06:33:03;;;;;;;9.87;8.63;;;23.90;98.40;;;;;;5981499;24;20420;-65
2023/06/09 06:35:30;;;;;;;12.07;8.80;;;24.00;98.40;;;;;;5982207;24;20419;-65
2023/06/09 06:37:57;;;;;;;12.63;9.60;;;24.40;94.40;;;;;;5981715;24;20506;-64
2023/06/09 06:40:25;;;;;;;10.23;8.53;;;24.60;93.60;;;;;;5981885;24;20427;-64
2023/06/09 06:42:52;;;;;;;15.70;10.50;;;24.70;93.30;;;;;;5979238;24;20815;-64
2023/06/09 06:45:19;;;;;;;13.57;10.33;;;24.90;93.80;;;;;;5983913;24;21033;-64
2023/06/09 06:47:46;;;;;;;9.83;7.80;;;24.90;93.30;;;;;;5983618;24;20897;-65
2023/06/09 06:50:14;;;;;;;10.20;7.73;;;24.70;90.10;;;;;;5984008;24;20420;-65
2023/06/09 06:52:42;;;;;;;9.60;7.90;;;24.70;88.90;;;;;;5983518;24;20415;-65
2023/06/09 06:55:09;;;;;;;8.50;7.17;;;24.90;86.60;;;;;;5983905;24;20426;-65
2023/06/09 06:57:36;;;;;;;11.23;8.40;;;25.10;81.20;;;;;;5980225;24;20489;-64
2023/06/09 07:00:12;;;;;;;11.57;8.03;;;25.20;81.90;;;;;;5982420;24;20425;-65
2023/06/09 07:02:39;;;;;;;9.40;7.50;;;25.10;80.80;;;;;;5981388;24;20423;-65
2023/06/09 07:05:07;;;;;;;10.40;7.70;;;25.50;78.50;;;;;;5980970;24;20462;-65
2023/06/09 07:07:36;;;;;;;11.30;8.93;;;25.70;75.30;;;;;;5991191;24;20959;-64
2023/06/09 07:10:04;;;;;;;9.70;7.80;;;25.90;76.20;;;;;;5981772;24;20478;-64
2023/06/09 07:12:30;;;;;;;14.10;8.00;;;26.00;75.30;;;;;;5982001;24;20471;-64
2023/06/09 07:14:57;;;;;;;11.03;7.90;;;26.10;72.20;;;;;;5982542;24;20421;-65
2023/06/09 07:17:24;;;;;;;10.07;6.60;;;25.80;66.90;;;;;;5982073;24;20423;-64
2023/06/09 07:19:51;;;;;;;11.03;7.53;;;26.00;68.30;;;;;;5981724;24;20432;-65
2023/06/09 07:22:18;;;;;;;10.00;6.60;;;25.60;66.80;;;;;;5981780;24;20444;-64
2023/06/09 07:24:47;;;;;;;11.00;7.60;;;25.80;64.20;;;;;;5982003;24;20507;-64
2023/06/09 07:27:14;;;;;;;10.33;7.90;;;25.80;67.00;;;;;;5982052;24;20738;-64
2023/06/09 07:29:42;;;;;;;11.20;7.53;;;26.00;60.40;;;;;;5982094;24;20421;-64
2023/06/09 07:32:09;;;;;;;10.23;8.10;;;26.10;62.30;;;;;;5982205;24;20416;-65
2023/06/09 07:34:37;;;;;;;10.60;7.20;;;26.50;63.00;;;;;;5982023;24;20426;-64
2023/06/09 07:37:05;;;;;;;12.70;7.80;;;26.20;58.70;;;;;;5982047;24;20426;-64
2023/06/09 07:39:32;;;;;;;10.40;8.30;;;26.20;58.80;;;;;;5981569;24;20425;-64
2023/06/09 07:42:00;;;;;;;11.50;8.93;;;26.30;59.00;;;;;;5980096;24;20476;-65
2023/06/09 07:44:27;;;;;;;9.87;7.60;;;26.30;57.40;;;;;;5981834;24;20749;-65
2023/06/09 07:46:54;;;;;;;11.93;8.30;;;26.20;58.70;;;;;;5981600;24;20432;-64
2023/06/09 07:49:21;;;;;;;10.90;8.90;;;26.50;60.00;;;;;;5981816;24;20939;-64
2023/06/09 07:51:49;;;;;;;11.07;9.00;;;26.10;56.70;;;;;;5982191;24;20417;-64
2023/06/09 07:54:16;;;;;;;12.60;8.90;;;26.30;58.80;;;;;;5981812;24;20948;-65
2023/06/09 07:56:48;;;;;;;10.27;8.03;;;26.40;56.80;;;;;;5982698;24;20431;-66
2023/06/09 07:59:16;;;;;;;10.90;8.80;;;26.30;54.80;;;;;;5982985;24;20453;-66
2023/06/09 08:01:44;;;;;;;10.98;9.32;;;26.60;59.00;;;;;;5983355;24;20433;-67
2023/06/09 08:04:11;;;;;;;11.50;9.03;;;26.70;59.10;;;;;;5983144;24;20488;-66
2023/06/09 08:06:38;;;;;;;12.53;8.50;;;26.90;58.20;;;;;;5983503;24;20453;-66
2023/06/09 08:09:05;;;;;;;12.77;8.67;;;27.10;53.90;;;;;;5983400;24;20396;-66
2023/06/09 08:11:32;;;;;;;11.03;8.50;;;26.80;50.30;;;;;;5983432;24;20473;-66
2023/06/09 08:13:59;;;;;;;10.20;8.87;;;27.10;52.70;;;;;;5982625;24;20422;-66
2023/06/09 08:16:27;;;;;;;10.53;7.90;;;27.30;50.20;;;;;;5983474;24;20456;-66
2023/06/09 08:18:54;;;;;;;12.10;9.47;;;27.00;49.80;;;;;;5983217;24;20403;-66
2023/06/09 08:21:22;;;;;;;11.90;8.80;;;26.90;51.40;;;;;;5982998;24;20484;-66
2023/06/09 08:23:48;;;;;;;10.17;8.20;;;27.00;52.00;;;;;;5982518;24;20503;-66
2023/06/09 08:26:15;;;;;;;9.30;7.53;;;27.00;47.60;;;;;;5983341;24;20420;-66
2023/06/09 08:28:42;;;;;;;17.60;8.77;;;26.90;48.70;;;;;;5982840;24;20429;-67
2023/06/09 08:31:09;;;;;;;12.20;7.47;;;27.30;46.90;;;;;;5983236;24;20422;-66
2023/06/09 08:33:39;;;;;;;10.40;7.27;;;27.20;43.60;;;;;;5982577;24;20907;-66
2023/06/09 08:36:07;;;;;;;8.30;7.10;;;27.10;44.40;;;;;;5983210;24;20423;-67
2023/06/09 08:38:35;;;;;;;9.53;7.53;;;26.80;44.30;;;;;;5983001;24;20453;-67
2023/06/09 08:41:07;;;;;;;14.23;7.20;;;27.50;47.30;;;;;;5983033;24;20397;-67
2023/06/09 08:43:35;;;;;;;10.47;7.97;;;27.90;44.70;;;;;;5982675;24;20439;-67
2023/06/09 08:46:05;;;;;;;10.17;7.37;;;28.20;42.20;;;;;;5983231;24;20461;-67
2023/06/09 08:48:33;;;;;;;10.40;7.97;;;28.00;39.30;;;;;;5982964;24;20780;-67
2023/06/09 08:51:01;;;;;;;8.73;6.53;;;27.70;34.50;;;;;;5983106;24;20495;-67
2023/06/09 08:53:29;;;;;;;8.23;6.20;;;28.30;37.10;;;;;;5982271;24;20415;-67
2023/06/09 08:55:57;;;;;;;9.33;6.40;;;28.20;33.30;;;;;;5983076;24;20419;-67
2023/06/09 08:58:24;;;;;;;8.60;6.30;;;28.10;34.00;;;;;;5982398;24;20423;-65
2023/06/09 09:00:51;;;;;;;11.47;7.40;;;28.20;33.00;;;;;;5982174;24;20934;-65
2023/06/09 09:03:18;;;;;;;10.00;7.27;;;28.30;33.00;;;;;;5982229;24;20526;-65
2023/06/09 09:05:45;;;;;;;14.43;7.43;;;28.80;33.40;;;;;;5982905;24;20419;-65
2023/06/09 09:08:14;;;;;;;8.90;6.60;;;29.10;33.60;;;;;;5982588;24;20404;-65
2023/06/09 09:10:41;;;;;;;8.73;6.40;;;28.90;26.00;;;;;;5982935;24;20419;-65
2023/06/09 09:13:10;;;;;;;8.43;7.03;;;28.50;25.20;;;;;;5981756;24;20426;-65
2023/06/09 09:15:37;;;;;;;9.77;6.27;;;28.10;25.00;;;;;;5982768;24;20398;-65
2023/06/09 09:18:07;;;;;;;11.30;6.70;;;28.60;26.30;;;;;;5982578;24;20510;-65
2023/06/09 09:20:36;;;;;;;8.47;6.10;;;29.00;25.50;;;;;;5982382;24;20423;-65
2023/06/09 09:23:05;;;;;;;8.30;6.57;;;29.40;24.40;;;;;;5982043;24;20440;-66
2023/06/09 09:25:33;;;;;;;9.73;6.57;;;29.90;22.20;;;;;;5982520;24;20419;-67
2023/06/09 09:28:03;;;;;;;9.80;6.10;;;30.30;22.60;;;;;;5982409;24;20427;-67
2023/06/09 09:30:47;;;;;;;11.70;6.80;;;30.40;20.70;;;;;;5982242;24;20430;-67
2023/06/09 09:33:16;;;;;;;11.43;6.50;;;30.90;19.00;;;;;;5991149;24;20419;-67
2023/06/09 09:35:46;;;;;;;10.43;7.00;;;30.90;16.40;;;;;;5982688;24;20420;-67
2023/06/09 09:38:16;;;;;;;9.47;6.53;;;31.00;17.90;;;;;;5982176;24;20423;-67
2023/06/09 09:40:46;;;;;;;13.23;6.40;;;31.00;12.80;;;;;;5982721;24;20420;-67
2023/06/09 09:43:13;;;;;;;10.60;6.17;;;31.50;11.70;;;;;;5981972;24;20443;-67
2023/06/09 09:45:45;;;;;;;8.10;5.67;;;31.40;12.30;;;;;;5982617;24;20458;-67
2023/06/09 09:48:13;;;;;;;8.40;6.30;;;31.40;9.10;;;;;;5982527;24;20408;-67
2023/06/09 09:50:42;;;;;;;8.73;6.30;;;31.80;11.50;;;;;;5982196;24;20900;-67
2023/06/09 09:53:09;;;;;;;7.50;5.27;;;31.70;6.10;;;;;;5981743;24;20427;-67
2023/06/09 09:55:37;;;;;;;9.23;6.23;;;31.80;8.60;;;;;;5982622;24;20419;-67
2023/06/09 09:58:07;;;;;;;8.27;5.63;;;31.60;8.10;;;;;;5982328;24;20419;-67
2023/06/09 10:00:36;;;;;;;9.23;6.07;;;30.40;6.20;;;;;;5982572;24;20510;-67
2023/06/09 10:03:07;;;;;;;11.10;5.87;;;31.00;11.40;;;;;;5981971;24;20471;-67
2023/06/09 10:05:38;;;;;;;7.43;5.80;;;31.60;10.10;;;;;;5982089;24;20404;-67
2023/06/09 10:08:06;;;;;;;7.50;5.57;;;31.40;5.80;;;;;;5982480;24;20707;-67
2023/06/09 10:10:34;;;;;;;8.63;6.63;;;31.60;7.90;;;;;;5982573;24;20777;-67
2023/06/09 10:13:03;;;;;;;8.27;6.27;;;32.00;7.80;;;;;;5981743;24;20484;-67
2023/06/09 10:15:32;;;;;;;8.10;5.40;;;32.00;4.10;;;;;;5982596;24;21045;-67
2023/06/09 10:18:00;;;;;;;7.77;5.50;;;31.10;5.80;;;;;;5981647;24;20927;-67
2023/06/09 10:20:27;;;;;;;8.43;5.13;;;30.80;6.40;;;;;;5982324;24;20423;-67
2023/06/09 10:22:54;;;;;;;7.97;5.00;;;30.90;3.50;;;;;;5981696;24;20397;-67
2023/06/09 10:25:24;;;;;;;7.43;5.03;;;31.30;3.70;;;;;;5982015;24;20394;-67
2023/06/09 10:27:51;;;;;;;8.90;5.80;;;31.10;3.60;;;;;;5982287;24;20426;-67
2023/06/09 10:30:19;;;;;;;8.83;5.63;;;30.90;3.50;;;;;;5982474;24;20424;-67
2023/06/09 10:32:52;;;;;;;10.75;5.50;;;30.30;3.20;;;;;;5980275;24;20426;-65
2023/06/09 10:35:25;;;;;;;8.87;4.70;;;31.20;3.60;;;;;;5982179;24;20181;-66
2023/06/09 10:37:53;;;;;;;7.50;4.50;;;32.10;2.00;;;;;;5981853;24;20709;-64
2023/06/09 10:40:29;;;;;;;8.70;4.80;;;32.30;1.00;;;;;;5982331;24;20747;-65
2023/06/09 10:43:30;;;;;;;6.60;4.70;;;32.90;1.00;;;;;;5981247;24;20429;-64
2023/06/09 10:45:58;;;;;;;8.13;5.47;;;32.70;1.00;;;;;;5982215;24;20427;-64
2023/06/09 10:48:50;;;;;;;8.83;4.80;;;33.20;1.00;;;;;;5982113;24;20816;-65
2023/06/09 10:51:42;;;;;;;8.30;5.13;;;33.80;1.00;;;;;;5954954;24;20419;-64
2023/06/09 10:54:22;;;;;;;9.40;4.77;;;34.10;1.00;;;;;;5981507;24;20446;-65
2023/06/09 10:56:53;;;;;;;7.50;4.40;;;33.60;1.00;;;;;;5982153;24;20431;-65
2023/06/09 11:00:14;;;;;;;7.10;4.67;;;33.60;1.00;;;;;;5982030;24;20442;-65
2023/06/09 11:02:42;;;;;;;7.27;4.40;;;33.90;1.00;;;;;;5981783;24;20375;-64
2023/06/09 11:05:11;;;;;;;7.73;4.93;;;34.60;1.00;;;;;;5981758;24;20417;-62
2023/06/09 11:07:44;;;;;;;8.10;5.20;;;34.70;1.00;;;;;;5981625;24;20423;-63
2023/06/09 11:10:35;;;;;;;7.67;4.90;;;35.30;1.00;;;;;;5982038;24;20435;-63
2023/06/09 11:13:04;;;;;;;7.93;4.33;;;34.80;1.00;;;;;;5981591;24;20402;-64
2023/06/09 11:16:01;;;;;;;7.60;4.90;;;34.90;1.00;;;;;;5982846;24;20973;-64
2023/06/09 11:18:29;;;;;;;6.50;4.30;;;34.20;1.00;;;;;;5984300;24;20414;-64
2023/06/09 11:21:16;;;;;;;8.83;4.27;;;35.00;1.00;;;;;;5983642;24;20419;-62
2023/06/09 11:24:03;;;;;;;8.07;4.50;;;35.20;1.00;;;;;;5983641;24;20395;-63
2023/06/09 11:26:32;;;;;;;7.47;4.57;;;35.60;1.00;;;;;;5983597;24;20400;-63
2023/06/09 11:29:00;;;;;;;8.50;5.10;;;35.70;1.00;;;;;;5992499;24;20729;-63
2023/06/09 11:31:27;;;;;;;6.60;4.20;;;35.50;1.00;;;;;;5984814;24;20419;-64
2023/06/09 11:33:55;;;;;;;6.43;3.93;;;35.90;1.00;;;;;;5984320;24;20716;-63
2023/06/09 11:36:30;;;;;;;6.73;4.10;;;35.50;1.00;;;;;;5984844;24;20991;-64
2023/06/09 11:39:04;;;;;;;7.07;4.03;;;35.70;1.00;;;;;;5985222;24;20774;-63
2023/06/09 11:41:32;;;;;;;9.00;4.23;;;35.60;1.00;;;;;;5984929;24;20438;-64
2023/06/09 11:43:59;;;;;;;6.33;3.93;;;36.00;1.00;;;;;;5984555;24;20730;-63
2023/06/09 11:46:26;;;;;;;8.33;3.97;;;35.40;1.00;;;;;;5985132;24;20455;-63
2023/06/09 11:49:07;;;;;;;6.47;4.30;;;35.80;1.00;;;;;;5984723;24;20394;-65
2023/06/09 11:51:56;;;;;;;8.40;4.30;;;35.40;1.00;;;;;;5985046;24;20754;-64
2023/06/09 11:54:23;;;;;;;6.30;3.70;;;34.30;1.00;;;;;;5984475;24;20444;-63
2023/06/09 11:56:51;;;;;;;7.67;4.30;;;35.00;1.00;;;;;;5985026;24;20424;-64
2023/06/09 11:59:19;;;;;;;10.57;3.90;;;35.20;1.00;;;;;;5984602;24;20883;-63
2023/06/09 12:01:47;;;;;;;6.63;4.20;;;35.00;1.00;;;;;;5984570;24;20419;-64
2023/06/09 12:04:14;;;;;;;6.27;3.87;;;35.80;1.00;;;;;;5984024;24;20423;-64
2023/06/09 12:06:41;;;;;;;7.27;4.40;;;36.30;1.00;;;;;;5984592;24;20502;-64
2023/06/09 12:09:21;;;;;;;5.47;3.23;;;36.60;1.00;;;;;;5984921;24;20398;-64
2023/06/09 12:11:54;;;;;;;6.80;4.37;;;36.60;1.00;;;;;;5984923;24;20401;-64
2023/06/09 12:14:21;;;;;;;5.80;3.90;;;36.40;1.00;;;;;;5984806;24;20435;-64
2023/06/09 12:16:49;;;;;;;8.03;4.60;;;36.70;1.00;;;;;;5984834;24;20772;-64
2023/06/09 12:19:17;;;;;;;6.90;3.73;;;36.80;1.00;;;;;;5984812;24;20401;-64
2023/06/09 12:21:47;;;;;;;7.47;4.03;;;37.30;1.00;;;;;;5984743;24;20740;-64
2023/06/09 12:24:15;;;;;;;6.80;4.07;;;37.70;1.00;;;;;;5984151;24;20752;-65
2023/06/09 12:26:47;;;;;;;13.07;4.53;;;37.40;1.00;;;;;;5984754;24;20394;-64
2023/06/09 12:29:14;;;;;;;6.47;3.77;;;38.30;1.00;;;;;;5984384;24;20378;-65
2023/06/09 12:31:45;;;;;;;5.90;3.33;;;36.90;1.00;;;;;;5984353;24;20434;-64
2023/06/09 12:34:23;;;;;;;7.80;3.97;;;36.90;1.00;;;;;;5984118;24;20439;-63
2023/06/09 12:36:50;;;;;;;7.40;3.60;;;37.40;1.00;;;;;;5984677;24;20404;-63